Cannon Falls, Minnesota
Current Conditions -  °F | °C
As of 9:54 PM on Thursday 18 Dec 2014 (Local Time) from KSYN Reporting Station
Overcast Overcast  
Wind Chill: 16°   Ceiling: 1700
Heat Index: 22°   Visibility: 10mi
Dew Point: 16°   Wind: 5mph
Humidity: 77%   Direction: 120°ESE
Pressure: 30.25"   Gusts: NA
Location:  44.51°N, 92.91°W
Report Text: KSYN 190354Z AUTO 12004KT 10SM OVC017 M05/M09 A3025 RMK AO2 T10551090
Loading
Personal Weather Stations






























Interactive Weather Map New forecast layout! Learn more

10-Day Weather Forecast

Advertisements
Track Severe Weather on mobile